Nearby METAR Reports

 

KIAD - Wash Dc/Dulles, Virginia, USA
Distance from station: ESE 7mi, 11km
Updated: Thu, 21-Jun-2018 10:52pm EDT
Overcast
Overcast
 Wind from ENE
Wind: ENE 5 mph , 7 km/h
Temperature: 75°F , 24°C
Dew Point: 70°F , 21°C
Humidity: 83%
Barometer: 29.83 inHg , 1010.2 hPa
Clouds: Overcast
Visibility: 10 miles , 16 km
Cloud details: Mostly cloudy 4000 ft
Overcast 9000 ft
2018/06/22 02:52 KIAD 220252Z 07004KT 10SM BKN040CB OVC090 24/21 A2983 RMK AO2 SLP098 CB W MOV E T02390206 51006
KJYO - Leesburg/Godfrey, Virginia, USA
Distance from station: N 7mi, 12km
Updated: Thu, 21-Jun-2018 10:55pm EDT
Partly cloudy
Partly cloudy
 Wind from calm
Wind: Calm
Temperature: 75°F , 24°C
Dew Point: 70°F , 21°C
Humidity: 83%
Barometer: 29.85 inHg , 1010.8 hPa
Clouds: Partly cloudy
Visibility: 10 miles , 16 km
Cloud details: Partly cloudy 9000 ft
Partly cloudy 12000 ft
2018/06/22 02:55 KJYO 220255Z AUTO 00000KT 10SM SCT090 SCT120 24/21 A2985 RMK AO2
 
KHEF - Manassas Muni, Virginia, USA
Distance from station: S 17mi, 28km
Updated: Thu, 21-Jun-2018 10:56pm EDT
Mostly cloudy
Mostly cloudy
 Wind from SSW
Wind: SSW 3 mph , 6 km/h
Temperature: 73°F , 23°C
Dew Point: 72°F , 22°C
Humidity: 94%
Barometer: 29.83 inHg , 1010.2 hPa
Clouds: Mostly cloudy
Visibility: 10 miles , 16 km
Cloud details: Mostly cloudy 2200 ft
Mostly cloudy 3100 ft
Mostly cloudy 4800 ft
2018/06/22 02:56 KHEF 220256Z AUTO 20003KT 10SM BKN022 BKN031 BKN048 23/22 A2983 RMK AO2 SLP108 6//// T02280222 51007 PNO $
KGAI - Gaithersburg, Maryland, USA
Distance from station: NE 26mi, 41km
Updated: Thu, 21-Jun-2018 10:56pm EDT
Clear
Clear
 Wind from calm
Wind: Calm
Temperature: 72°F , 22°C
Dew Point: 68°F , 20°C
Humidity: 88%
Barometer: 29.85 inHg , 1010.8 hPa
Clouds: Clear
Visibility: 9 miles , 14 km
2018/06/22 02:56 KGAI 220256Z AUTO 00000KT 9SM CLR 22/20 A2985 RMK AO2 SLP129 T02170200 50006
 
KDAA - Fort Belvoir/Dav, Virginia, USA
Distance from station: SE 27mi, 44km
Updated: Thu, 21-Jun-2018 10:56pm EDT
Few Clouds
Few Clouds
 Wind from calm
Wind: Calm
Temperature: 75°F , 24°C
Dew Point: 70°F , 21°C
Humidity: 83%
Barometer: 29.82 inHg , 1009.8 hPa
Clouds: Few Clouds
Visibility: 10 miles , 16 km
Cloud details: Few Clouds 9000 ft
2018/06/22 02:56 KDAA 220256Z AUTO 00000KT 10SM FEW090 24/21 A2982 RMK AO2 SLP101 T02440207 51007 $
KHWY - Warrenton, Virginia, USA
Distance from station: SSW 27mi, 44km
Updated: Thu, 21-Jun-2018 10:55pm EDT
Light drizzle, Overcast
Light drizzle, Overcast
 Wind from calm
Wind: Calm
Temperature: 73°F , 23°C
Dew Point: 70°F , 21°C
Humidity: 89%
Barometer: 29.82 inHg , 1009.8 hPa
Summary: Light Drizzle
Clouds: Overcast
Visibility: 10 miles , 16 km
Cloud details: Overcast 7000 ft
2018/06/22 02:55 KHWY 220255Z AUTO 00000KT 10SM -DZ OVC070 23/21 A2982 RMK AO2 60005 T02300205
 
KDCA - Washington/Natl, Washington D.c., USA
Distance from station: ESE 30mi, 48km
Updated: Thu, 21-Jun-2018 10:52pm EDT
Overcast
Overcast
 Wind from E
Wind: E 3 mph , 6 km/h
Temperature: 79°F , 26°C
Dew Point: 66°F , 19°C
Humidity: 65%
Barometer: 29.82 inHg , 1009.8 hPa
Clouds: Overcast
Visibility: 10 miles , 16 km
Cloud details: Partly cloudy 4200 ft
Overcast 20000 ft
2018/06/22 02:52 KDCA 220252Z 09003KT 10SM SCT042 OVC200 26/19 A2982 RMK AO2 SLP099 T02610189 51007
KFDK - Frederick, Maryland, USA
Distance from station: NNE 33mi, 53km
Updated: Thu, 21-Jun-2018 11:05pm EDT
Partly cloudy
Partly cloudy
 Wind from calm
Wind: Calm
Temperature: 72°F , 22°C
Dew Point: 72°F , 22°C
Humidity: 100%
Barometer: 29.86 inHg , 1011.2 hPa
Clouds: Partly cloudy
Visibility: 10 miles , 16 km
Cloud details: Partly cloudy 7500 ft
2018/06/22 03:05 KFDK 220305Z AUTO 00000KT 10SM SCT075 22/22 A2986 RMK AO2
 
KOKV - Winchester Rgnl, Virginia, USA
Distance from station: WNW 33mi, 54km
Updated: Thu, 21-Jun-2018 10:55pm EDT
Drizzle, Overcast
Drizzle, Overcast
 Wind from calm
Wind: Calm
Temperature: 68°F , 20°C
Dew Point: 66°F , 19°C
Humidity: 94%
Barometer: 29.86 inHg , 1011.2 hPa
Summary: Drizzle
Clouds: Overcast
Visibility: 10 miles , 16 km
Cloud details: Partly cloudy 6500 ft
Mostly cloudy 10000 ft
Overcast 12000 ft
2018/06/22 02:55 KOKV 220255Z AUTO 00000KT 10SM DZ SCT065 BKN100 OVC120 20/19 A2986 RMK AO2
KCJR - Culpeper, Virginia, USA
Distance from station: SSW 34mi, 54km
Updated: Thu, 21-Jun-2018 10:55pm EDT
Light rain, Mostly cloudy
Light rain, Mostly cloudy
 Wind from calm
Wind: Calm
Temperature: 73°F , 23°C
Dew Point: 72°F , 22°C
Humidity: 94%
Barometer: 29.84 inHg , 1010.5 hPa
Summary: Light rain
Clouds: Mostly cloudy
Visibility: 5 miles , 8 km
Cloud details: Mostly cloudy 6500 ft
Mostly cloudy 12000 ft
2018/06/22 02:55 KCJR 220255Z AUTO 00000KT 5SM -RA BKN065 BKN120 23/22 A2984 RMK AO2 P0001 60009 T02250216
 
KCGS - College Park, Maryland, USA
Distance from station: E 35mi, 56km
Updated: Thu, 21-Jun-2018 10:57pm EDT
Clear
Clear
 Wind from calm
Wind: Calm
Temperature: 73°F , 23°C
Dew Point: 68°F , 20°C
Humidity: 83%
Barometer: 29.82 inHg , 1009.8 hPa
Clouds: Clear
Visibility: 10 miles , 16 km
2018/06/22 02:57 KCGS 220257Z AUTO 00000KT 10SM CLR 23/20 A2982 RMK AO1 T02250201
KNYG - Quantico Mcaf, Virginia, USA
Distance from station: SSE 35mi, 57km
Updated: Thu, 21-Jun-2018 10:56pm EDT
Overcast
Overcast
 Wind from E
Wind: E 5 mph , 7 km/h
Temperature: 77°F , 25°C
Dew Point: 72°F , 22°C
Humidity: 83%
Barometer: 29.83 inHg , 1010.2 hPa
Clouds: Overcast
Visibility: 10 miles , 16 km
Cloud details: Overcast 8500 ft
2018/06/22 02:56 KNYG 220256Z AUTO 08004KT 10SM OVC085 25/22 A2983 RMK AO2 SLP101 60001 T02500222 51009
 
KFRR - Fort Royal, Virginia, USA
Distance from station: W 37mi, 59km
Updated: Thu, 21-Jun-2018 10:55pm EDT
Overcast
Overcast
 Wind from calm
Wind: Calm
Barometer: 29.84 inHg , 1010.5 hPa
Clouds: Overcast
Visibility: 7 miles , 11 km
Cloud details: Mostly cloudy 5500 ft
Overcast 7500 ft
2018/06/22 02:55 KFRR 220255Z AUTO 00000KT 7SM BKN055 OVC075 A2984 RMK AO1 P0007
KMRB - Martinsburg, West Virginia, USA
Distance from station: NW 38mi, 61km
Updated: Thu, 21-Jun-2018 10:53pm EDT
Mostly cloudy
Mostly cloudy
 Wind from calm
Wind: Calm
Temperature: 72°F , 22°C
Dew Point: 70°F , 21°C
Humidity: 94%
Barometer: 29.84 inHg , 1010.5 hPa
Clouds: Mostly cloudy
Visibility: 10 miles , 16 km
Cloud details: Mostly cloudy 7000 ft
Mostly cloudy 10000 ft
2018/06/22 02:53 KMRB 220253Z AUTO 00000KT 10SM BKN070 BKN100 22/21 A2984 RMK AO2 SLP099 T02170206 51008
 
KADW - Andrews Afb, Maryland, USA
Distance from station: ESE 39mi, 63km
Updated: Thu, 21-Jun-2018 10:56pm EDT
Partly cloudy
Partly cloudy
 Wind from ENE
Wind: ENE 3 mph , 6 km/h
Temperature: 73°F , 23°C
Dew Point: 68°F , 20°C
Humidity: 83%
Barometer: 29.82 inHg , 1009.8 hPa
Clouds: Partly cloudy
Visibility: 10 miles , 16 km
Cloud details: Partly cloudy 10000 ft
2018/06/22 02:56 KADW 220256Z AUTO 07003KT 10SM SCT100 23/20 A2982 RMK AO2 SLP103 T02340199 52006 $
KRMN - Stafford Regnl, Virginia, USA
Distance from station: S 39mi, 63km
Updated: Thu, 21-Jun-2018 10:55pm EDT
Overcast
Overcast
 Wind from calm
Wind: Calm
Temperature: 73°F , 23°C
Dew Point: 73°F , 23°C
Humidity: 100%
Barometer: 29.87 inHg , 1011.5 hPa
Clouds: Overcast
Visibility: 10 miles , 16 km
Cloud details: Mostly cloudy 2400 ft
Overcast 7500 ft
2018/06/22 02:55 KRMN 220255Z AUTO 00000KT 10SM BKN024 OVC075 23/23 A2987 RMK AO2 P0001 60005 T02310231
 
KFME - Fort Meade, Maryland, USA
Distance from station: ENE 44mi, 70km
Updated: Thu, 21-Jun-2018 10:57pm EDT
Clear
Clear
 Wind from calm
Wind: Calm
Temperature: 70°F , 21°C
Dew Point: 68°F , 20°C
Humidity: 94%
Barometer: 29.85 inHg , 1010.8 hPa
Clouds: Clear
Visibility: 5 miles , 8 km
2018/06/22 02:57 KFME 220257Z AUTO 00000KT 5SM CLR 21/20 A2985 RMK AO1
KRSP - Nsf Thurmont, Maryland, USA
Distance from station: N 48mi, 77km
Updated: Thu, 21-Jun-2018 10:54pm EDT
Clear
Clear
 Wind from ESE
Wind: ESE 3 mph , 6 km/h
Temperature: 70°F , 21°C
Dew Point: 57°F , 14°C
Humidity: 64%
Barometer: 29.90 inHg , 1012.5 hPa
Clouds: Clear
Visibility: 10 miles , 16 km
2018/06/22 02:54 KRSP 220254Z AUTO 12003KT 10SM CLR 21/14 A2990 RMK AO2 SLP120 T02060139 51008 TSNO $
 
KEZF - Fredericksb/Shan, Virginia, USA
Distance from station: S 48mi, 78km
Updated: Thu, 21-Jun-2018 10:55pm EDT
Overcast
Overcast
 Wind from calm
Wind: Calm
Temperature: 75°F , 24°C
Dew Point: 75°F , 24°C
Humidity: 100%
Barometer: 29.81 inHg , 1009.5 hPa
Clouds: Overcast
Visibility: 10 miles , 16 km
Cloud details: Mostly cloudy 2500 ft
Overcast 5000 ft
2018/06/22 02:55 KEZF 220255Z AUTO 00000KT 10SM BKN025 OVC050 24/24 A2981 RMK AO2 60001 T02390239
KBWI - Balto/Wash Intl, Maryland, USA
Distance from station: ENE 49mi, 80km
Updated: Thu, 21-Jun-2018 10:54pm EDT
Overcast
Overcast
 Wind from calm
Wind: Calm
Temperature: 73°F , 23°C
Dew Point: 70°F , 21°C
Humidity: 89%
Barometer: 29.82 inHg , 1009.8 hPa
Clouds: Overcast
Visibility: 10 miles , 16 km
Cloud details: Few Clouds 9000 ft
Mostly cloudy 13000 ft
Overcast 17000 ft
2018/06/22 02:54 KBWI 220254Z 00000KT 10SM FEW090 BKN130 OVC170 23/21 A2982 RMK AO2 SLP097 T02280206 51010